Time;durP1;ratioP1;P1;durP2;ratioP2;P2;SDS_P1;SDS_P2;PMS_P1;PMS_P2;Temp;Humidity;BMP_temperature;BMP_pressure;BME280_temperature;BME280_humidity;BME280_pressure;Samples;Min_cycle;Max_cycle;Signal;HPM_P1;HPM_P2
2022/07/23 00:01:29;;;;;;;4.15;1.85;;;;;;;18.46;68.71;100160.52;1782572;80;20992;-72
2022/07/23 00:03:55;;;;;;;3.22;1.50;;;;;;;18.41;68.88;100166.06;1792344;79;20995;-72
2022/07/23 00:06:23;;;;;;;4.08;1.92;;;;;;;18.37;69.09;100160.25;1756151;81;21501;-72
2022/07/23 00:08:49;;;;;;;4.35;1.62;;;;;;;18.36;69.17;100157.76;1800541;79;21851;-72
2022/07/23 00:11:18;;;;;;;1.87;1.70;;;;;;;18.36;69.28;100158.59;1794575;79;21401;-72
2022/07/23 00:13:46;;;;;;;2.35;1.70;;;;;;;18.41;69.28;100150.85;1781484;80;20958;-73
2022/07/23 00:16:12;;;;;;;2.17;1.65;;;;;;;18.44;69.28;100161.72;1798429;78;21007;-72
2022/07/23 00:18:39;;;;;;;3.12;1.80;;;;;;;18.45;69.19;100165.55;1763347;79;20944;-72
2022/07/23 00:21:07;;;;;;;3.35;1.80;;;;;;;18.46;69.15;100161.86;1785507;79;22239;-72
2022/07/23 00:23:33;;;;;;;4.47;1.60;;;;;;;18.46;69.15;100161.86;1791245;79;21124;-72
2022/07/23 00:25:59;;;;;;;2.70;1.70;;;;;;;18.45;69.13;100160.20;1793169;79;20966;-72
2022/07/23 00:28:27;;;;;;;6.15;1.92;;;;;;;18.43;69.10;100164.04;1778046;79;20968;-73
2022/07/23 00:30:54;;;;;;;2.77;1.67;;;;;;;18.41;69.15;100163.39;1785461;79;21484;-73
2022/07/23 00:33:21;;;;;;;3.70;1.80;;;;;;;18.39;69.18;100167.58;1792988;79;21926;-73
2022/07/23 00:35:47;;;;;;;1.98;1.62;;;;;;;18.37;69.19;100164.77;1785263;79;20936;-76
2022/07/23 00:38:14;;;;;;;6.55;1.85;;;;;;;18.33;69.25;100162.94;1786282;79;21039;-73
2022/07/23 00:40:41;;;;;;;2.45;1.70;;;;;;;18.28;69.36;100171.50;1802310;78;21366;-73
2022/07/23 00:43:07;;;;;;;4.45;1.98;;;;;;;18.24;69.63;100163.52;1801975;79;21094;-73
2022/07/23 00:45:34;;;;;;;3.55;1.80;;;;;;;18.24;69.69;100170.70;1789905;79;21796;-73
2022/07/23 00:48:01;;;;;;;2.72;1.67;;;;;;;18.24;69.75;100170.20;1778342;79;21503;-72
2022/07/23 00:50:29;;;;;;;2.85;1.90;;;;;;;18.24;69.80;100168.86;1784656;79;20940;-73
2022/07/23 00:52:55;;;;;;;4.70;1.98;;;;;;;18.24;69.87;100171.54;1776727;79;21419;-73
2022/07/23 00:55:22;;;;;;;4.05;2.10;;;;;;;18.22;69.82;100168.19;1790315;79;21008;-73
2022/07/23 00:57:50;;;;;;;2.25;1.90;;;;;;;18.20;69.92;100169.37;1795092;79;22406;-73
2022/07/23 01:00:17;;;;;;;4.25;1.90;;;;;;;18.18;70.07;100170.06;1784623;79;20952;-73
2022/07/23 01:02:44;;;;;;;4.72;1.72;;;;;;;18.16;70.12;100175.59;1791192;79;21000;-73
2022/07/23 01:05:11;;;;;;;6.35;1.90;;;;;;;18.16;70.02;100176.09;1777539;79;21027;-73
2022/07/23 01:07:38;;;;;;;6.10;2.00;;;;;;;18.15;70.02;100175.27;1785123;79;21102;-73
2022/07/23 01:10:30;;;;;;;2.35;1.87;;;;;;;18.12;70.02;100170.25;1780789;79;22265;-72
2022/07/23 01:12:34;;;;;;;4.05;1.85;;;;;;;18.10;70.05;100170.10;1781141;79;20995;-72
2022/07/23 01:15:01;;;;;;;2.30;1.80;;;;;;;18.05;70.12;100173.31;1779280;79;21090;-72
2022/07/23 01:17:31;;;;;;;3.37;1.95;;;;;;;18.03;70.18;100179.31;1790817;79;20957;-73
2022/07/23 01:19:58;;;;;;;2.72;1.90;;;;;;;18.00;70.19;100179.67;1776143;79;20992;-73
2022/07/23 01:22:29;;;;;;;4.30;2.00;;;;;;;17.97;70.36;100188.88;1778108;79;21922;-72
2022/07/23 01:24:56;;;;;;;4.03;1.90;;;;;;;17.98;70.53;100192.38;1786772;79;20911;-73
2022/07/23 01:27:24;;;;;;;2.55;1.90;;;;;;;17.96;70.61;100189.06;1789893;79;21402;-73
2022/07/23 01:29:54;;;;;;;3.58;1.90;;;;;;;17.91;70.58;100197.58;1773945;79;21067;-73
2022/07/23 01:32:22;;;;;;;4.35;2.30;;;;;;;17.88;70.79;100195.27;1785895;80;21511;-73
2022/07/23 01:34:48;;;;;;;2.85;2.00;;;;;;;17.86;70.97;100197.78;1738981;81;22012;-73
2022/07/23 01:37:15;;;;;;;2.92;2.05;;;;;;;17.83;71.05;100206.13;1760390;80;20991;-72
2022/07/23 01:39:42;;;;;;;3.00;2.10;;;;;;;17.80;71.17;100203.81;1794900;79;21034;-73
2022/07/23 01:42:08;;;;;;;4.62;2.15;;;;;;;17.80;71.34;100201.97;1797433;79;21166;-73
2022/07/23 01:44:36;;;;;;;4.83;1.98;;;;;;;17.80;71.49;100203.81;1815474;79;20975;-72
2022/07/23 01:47:04;;;;;;;5.10;2.10;;;;;;;17.79;71.49;100200.31;1800279;77;22822;-72
2022/07/23 01:49:31;;;;;;;4.08;1.95;;;;;;;17.78;71.68;100208.00;1791214;79;21067;-73
2022/07/23 01:52:00;;;;;;;3.83;2.30;;;;;;;17.75;71.89;100208.31;1792862;79;20987;-73
2022/07/23 01:54:33;;;;;;;2.33;2.10;;;;;;;17.74;72.14;100206.66;1812033;79;20948;-73
2022/07/23 01:57:01;;;;;;;4.42;2.10;;;;;;;17.72;72.33;100202.83;1793335;79;21335;-73
2022/07/23 01:59:28;;;;;;;3.00;2.10;;;;;;;17.71;72.49;100201.66;1803284;77;22203;-72
2022/07/23 02:01:56;;;;;;;3.70;2.27;;;;;;;17.69;72.63;100203.17;1796942;79;20967;-72
2022/07/23 02:04:24;;;;;;;3.02;2.22;;;;;;;17.69;72.68;100209.86;1789345;79;21781;-72
2022/07/23 02:06:52;;;;;;;3.35;2.12;;;;;;;17.70;72.62;100210.19;1794961;77;21350;-72
2022/07/23 02:09:18;;;;;;;3.27;2.10;;;;;;;17.69;72.59;100212.53;1795629;79;20948;-72
2022/07/23 02:11:48;;;;;;;3.20;2.02;;;;;;;17.69;72.59;100204.52;1787078;79;22538;-76
2022/07/23 02:14:14;;;;;;;3.80;2.20;;;;;;;17.69;72.58;100210.33;1812551;77;21034;-73
2022/07/23 02:16:42;;;;;;;5.87;2.10;;;;;;;17.69;72.54;100215.20;1796906;79;21022;-73
2022/07/23 02:19:09;;;;;;;6.83;2.20;;;;;;;17.69;72.56;100211.66;1791195;79;20975;-73
2022/07/23 02:21:37;;;;;;;3.83;2.00;;;;;;;17.69;72.55;100208.52;1802637;79;20928;-72
2022/07/23 02:24:05;;;;;;;3.55;1.90;;;;;;;17.69;72.55;100213.00;1800717;77;21740;-73
2022/07/23 02:26:35;;;;;;;2.30;2.10;;;;;;;17.67;72.57;100211.84;1787783;79;21031;-72
2022/07/23 02:29:04;;;;;;;3.27;2.10;;;;;;;17.68;72.58;100207.33;1793422;78;20969;-71
2022/07/23 02:31:30;;;;;;;5.72;2.05;;;;;;;17.64;72.68;100210.83;1783837;79;20944;-72
2022/07/23 02:33:57;;;;;;;2.77;2.20;;;;;;;17.64;72.72;100216.17;1788814;79;21081;-74
2022/07/23 02:36:25;;;;;;;5.90;2.40;;;;;;;17.63;72.75;100223.85;1772669;79;21936;-73
2022/07/23 02:38:52;;;;;;;3.15;2.20;;;;;;;17.63;72.79;100227.03;1788294;79;21024;-74
2022/07/23 02:41:19;;;;;;;2.58;2.15;;;;;;;17.62;72.80;100231.54;1783672;79;20949;-75
2022/07/23 02:43:45;;;;;;;4.75;2.33;;;;;;;17.61;72.79;100232.55;1807735;79;21409;-72
2022/07/23 02:46:13;;;;;;;3.72;2.12;;;;;;;17.59;72.78;100239.91;1785027;79;21059;-71
2022/07/23 02:48:40;;;;;;;4.40;2.12;;;;;;;17.58;72.81;100239.58;1786886;79;21906;-72
2022/07/23 02:51:07;;;;;;;2.90;2.10;;;;;;;17.56;72.85;100237.55;1803876;79;21043;-73
2022/07/23 02:53:35;;;;;;;6.17;2.30;;;;;;;17.58;72.90;100238.23;1786609;79;21607;-73
2022/07/23 02:56:02;;;;;;;4.65;2.30;;;;;;;17.58;72.96;100240.08;1790743;79;21011;-74
2022/07/23 02:58:30;;;;;;;3.58;2.20;;;;;;;17.57;73.10;100241.08;1779360;79;20948;-73
2022/07/23 03:00:56;;;;;;;3.05;2.20;;;;;;;17.59;73.10;100240.41;1789640;79;21850;-72
2022/07/23 03:03:24;;;;;;;3.08;2.25;;;;;;;17.61;73.08;100243.73;1797042;79;20963;-72
2022/07/23 03:05:50;;;;;;;3.08;2.30;;;;;;;17.63;73.05;100242.55;1792167;77;21712;-72
2022/07/23 03:08:19;;;;;;;6.03;2.40;;;;;;;17.64;73.06;100241.55;1799148;79;21023;-72
2022/07/23 03:10:49;;;;;;;2.40;2.17;;;;;;;17.66;73.03;100244.03;1800876;79;20987;-73
2022/07/23 03:13:16;;;;;;;6.53;2.45;;;;;;;17.69;72.99;100239.71;1789926;79;21811;-72
2022/07/23 03:15:43;;;;;;;3.67;2.30;;;;;;;17.71;72.96;100245.23;1800158;79;20987;-72
2022/07/23 03:18:11;;;;;;;4.00;2.20;;;;;;;17.74;72.96;100246.73;1813196;79;20979;-72
2022/07/23 03:20:37;;;;;;;5.15;2.30;;;;;;;17.77;72.97;100244.23;1804138;79;21051;-71
2022/07/23 03:23:05;;;;;;;3.85;2.30;;;;;;;17.80;72.96;100245.22;1780447;79;21102;-72
2022/07/23 03:25:32;;;;;;;4.25;2.40;;;;;;;17.82;73.00;100246.70;1789970;79;22279;-69
2022/07/23 03:27:58;;;;;;;2.80;2.35;;;;;;;17.84;73.06;100250.03;1815081;78;20888;-70
2022/07/23 03:30:26;;;;;;;5.75;2.20;;;;;;;17.88;73.12;100252.71;1815043;78;20973;-73
2022/07/23 03:32:52;;;;;;;2.52;2.25;;;;;;;17.92;73.09;100254.52;1771650;79;20994;-73
2022/07/23 03:35:19;;;;;;;3.40;2.20;;;;;;;17.96;73.08;100258.54;1811581;78;20992;-72
2022/07/23 03:37:48;;;;;;;3.22;2.25;;;;;;;18.00;73.07;100264.69;1816742;78;21839;-72
2022/07/23 03:40:14;;;;;;;5.33;2.30;;;;;;;18.04;73.06;100269.17;1813183;77;20980;-72
2022/07/23 03:42:42;;;;;;;4.15;2.37;;;;;;;18.06;72.99;100271.20;1800402;78;22323;-76
2022/07/23 03:45:09;;;;;;;3.70;2.02;;;;;;;18.10;72.90;100269.00;1792801;79;20930;-70
2022/07/23 03:47:38;;;;;;;3.42;2.58;;;;;;;18.12;72.87;100264.30;1797989;78;20952;-69
2022/07/23 03:50:07;;;;;;;4.72;2.30;;;;;;;18.15;72.86;100263.48;1791584;78;21797;-71
2022/07/23 03:52:35;;;;;;;3.92;2.30;;;;;;;18.19;72.78;100254.09;1790019;78;20987;-73
2022/07/23 03:55:03;;;;;;;4.08;2.40;;;;;;;18.23;72.73;100252.72;1814386;77;20920;-72
2022/07/23 03:57:30;;;;;;;5.78;2.30;;;;;;;18.28;72.65;100256.22;1803504;78;20957;-73
2022/07/23 03:59:56;;;;;;;2.75;2.20;;;;;;;18.32;72.62;100260.20;1817127;78;21027;-70
2022/07/23 04:02:23;;;;;;;4.97;2.60;;;;;;;18.38;72.56;100258.69;1786418;78;21948;-72
2022/07/23 04:04:50;;;;;;;2.50;2.27;;;;;;;18.41;72.40;100258.33;1816428;77;21034;-75
2022/07/23 04:07:18;;;;;;;3.22;2.05;;;;;;;18.48;72.30;100260.13;1790844;79;21065;-69
2022/07/23 04:09:46;;;;;;;3.37;2.12;;;;;;;18.54;72.29;100258.61;1788033;78;21050;-69
2022/07/23 04:12:14;;;;;;;5.47;2.42;;;;;;;18.61;72.12;100258.20;1814601;78;21067;-74
2022/07/23 04:14:40;;;;;;;3.75;2.40;;;;;;;18.67;72.00;100255.38;1822558;77;21888;-72
2022/07/23 04:17:07;;;;;;;3.02;2.27;;;;;;;18.73;71.83;100255.51;1805118;79;20926;-73
2022/07/23 04:19:41;;;;;;;2.62;2.42;;;;;;;18.78;71.75;100254.45;1830318;77;21423;-72
2022/07/23 04:22:08;;;;;;;5.28;2.40;;;;;;;18.86;71.55;100250.89;1804618;79;21085;-72
2022/07/23 04:24:36;;;;;;;2.83;2.20;;;;;;;18.90;71.38;100246.84;1805534;78;20982;-72
2022/07/23 04:27:03;;;;;;;5.20;2.20;;;;;;;18.95;71.16;100248.99;1815234;79;21704;-72
2022/07/23 04:29:31;;;;;;;4.45;2.60;;;;;;;19.00;70.97;100262.15;1799101;79;21018;-72
2022/07/23 04:31:57;;;;;;;2.98;2.33;;;;;;;19.04;70.80;100265.32;1791929;79;21439;-72
2022/07/23 04:34:26;;;;;;;3.27;2.50;;;;;;;19.06;70.51;100262.78;1804264;79;21015;-72
2022/07/23 04:36:53;;;;;;;4.80;2.70;;;;;;;19.07;70.32;100262.27;1804336;79;21063;-72
2022/07/23 04:39:20;;;;;;;4.60;2.02;;;;;;;19.07;70.24;100259.59;1804304;79;22522;-72
2022/07/23 04:41:47;;;;;;;3.52;2.30;;;;;;;19.11;70.19;100255.56;1804436;79;20848;-72
2022/07/23 04:44:14;;;;;;;3.17;2.25;;;;;;;19.16;70.00;100256.67;1775021;79;20995;-72
2022/07/23 04:46:41;;;;;;;4.00;2.40;;;;;;;19.25;70.00;100257.44;1815670;79;20933;-72
2022/07/23 04:49:08;;;;;;;4.83;2.60;;;;;;;19.29;69.70;100259.23;1783646;79;20948;-72
2022/07/23 04:51:34;;;;;;;6.92;2.47;;;;;;;19.33;69.54;100261.39;1724793;82;21824;-72
2022/07/23 04:54:01;;;;;;;5.65;2.20;;;;;;;19.36;69.16;100257.51;1754787;80;20993;-72
2022/07/23 04:56:27;;;;;;;2.85;2.30;;;;;;;19.40;69.18;100260.17;1744155;81;21054;-72
2022/07/23 04:58:55;;;;;;;4.95;2.20;;;;;;;19.44;69.10;100259.61;1789613;79;21064;-72
2022/07/23 05:01:21;;;;;;;2.70;2.12;;;;;;;19.53;69.12;100271.08;1803185;79;21396;-72
2022/07/23 05:03:48;;;;;;;4.62;2.40;;;;;;;19.60;68.84;100268.55;1772716;81;21906;-73
2022/07/23 05:06:15;;;;;;;3.20;2.37;;;;;;;19.64;68.42;100269.32;1775140;80;20980;-72
2022/07/23 05:08:42;;;;;;;3.87;2.33;;;;;;;19.69;68.38;100270.13;1772497;81;21007;-74
2022/07/23 05:11:09;;;;;;;3.67;2.27;;;;;;;19.76;68.21;100266.19;1783240;80;21024;-72
2022/07/23 05:13:38;;;;;;;4.65;2.30;;;;;;;19.78;67.91;100259.61;1772630;81;20943;-72
2022/07/23 05:16:05;;;;;;;5.00;2.25;;;;;;;19.81;67.81;100264.63;1754849;80;21935;-72
2022/07/23 05:18:33;;;;;;;4.47;2.50;;;;;;;19.86;67.77;100263.55;1773274;79;21018;-72
2022/07/23 05:21:01;;;;;;;6.60;2.25;;;;;;;19.92;67.63;100266.02;1816175;78;20977;-72
2022/07/23 05:23:30;;;;;;;3.95;2.30;;;;;;;19.97;67.28;100267.61;1810400;79;20939;-72
2022/07/23 05:25:57;;;;;;;4.45;2.27;;;;;;;19.98;67.12;100266.11;1815141;79;20970;-72
2022/07/23 05:28:24;;;;;;;3.62;2.30;;;;;;;19.98;66.81;100270.14;1818355;78;21787;-72
2022/07/23 05:30:52;;;;;;;2.50;2.30;;;;;;;20.01;66.67;100262.22;1814157;79;21048;-72
2022/07/23 05:33:20;;;;;;;4.08;2.17;;;;;;;20.06;66.54;100266.50;1818275;78;20930;-72
2022/07/23 05:35:47;;;;;;;5.50;2.00;;;;;;;20.13;66.59;100263.92;1814086;79;21030;-72
2022/07/23 05:38:18;;;;;;;3.17;2.10;;;;;;;20.21;66.55;100265.16;1807139;76;21045;-72
2022/07/23 05:40:45;;;;;;;2.87;2.10;;;;;;;20.29;66.30;100255.67;1797143;78;21901;-72
2022/07/23 05:43:13;;;;;;;2.65;2.08;;;;;;;20.39;66.29;100252.70;1763485;81;21033;-72
2022/07/23 05:45:41;;;;;;;1.92;1.70;;;;;;;20.49;65.89;100260.80;1770826;80;20952;-72
2022/07/23 05:48:08;;;;;;;4.45;2.05;;;;;;;20.56;65.59;100260.87;1757589;81;21068;-72
2022/07/23 05:50:36;;;;;;;2.77;2.20;;;;;;;20.63;65.42;100262.28;1769226;81;21055;-72
2022/07/23 05:53:04;;;;;;;5.45;2.05;;;;;;;20.72;65.50;100259.80;1812995;78;22552;-72
2022/07/23 05:55:36;;;;;;;2.20;2.00;;;;;;;20.81;65.21;100256.80;1815514;77;21038;-72
2022/07/23 05:58:03;;;;;;;3.33;2.20;;;;;;;20.88;64.77;100257.39;1814297;79;21512;-72
2022/07/23 06:00:31;;;;;;;5.78;2.17;;;;;;;20.92;64.47;100249.26;1814198;79;20942;-72
2022/07/23 06:02:58;;;;;;;3.75;2.05;;;;;;;20.92;64.12;100252.77;1813929;79;20919;-71
2022/07/23 06:05:26;;;;;;;4.42;2.20;;;;;;;20.95;64.35;100247.55;1814205;79;20926;-72
2022/07/23 06:07:54;;;;;;;8.28;2.20;;;;;;;21.03;64.24;100252.25;1814648;77;21009;-72
2022/07/23 06:10:21;;;;;;;5.37;2.10;;;;;;;21.07;63.68;100250.86;1814246;79;20963;-71
2022/07/23 06:12:50;;;;;;;2.50;2.05;;;;;;;21.12;63.68;100246.23;1818722;77;21105;-72
2022/07/23 06:15:16;;;;;;;3.25;2.10;;;;;;;21.19;63.71;100251.67;1847587;77;20990;-72
2022/07/23 06:17:43;;;;;;;2.95;1.80;;;;;;;21.26;63.35;100256.12;1847345;77;21915;-73
2022/07/23 06:20:10;;;;;;;4.00;2.20;;;;;;;21.32;63.26;100255.84;1847753;77;21029;-72
2022/07/23 06:22:38;;;;;;;2.22;1.80;;;;;;;21.40;63.36;100255.70;1847603;77;20938;-72
2022/07/23 06:25:08;;;;;;;3.27;1.92;;;;;;;21.48;62.55;100252.88;1847368;77;20983;-73
2022/07/23 06:27:35;;;;;;;2.85;1.75;;;;;;;21.53;61.74;100256.33;1847453;77;20966;-72
2022/07/23 06:30:02;;;;;;;2.10;1.90;;;;;;;21.55;61.83;100259.13;1846043;77;22588;-72
2022/07/23 06:32:29;;;;;;;2.83;1.80;;;;;;;21.63;61.77;100252.78;1847345;77;21386;-72
2022/07/23 06:34:56;;;;;;;8.15;1.87;;;;;;;21.64;61.01;100260.65;1847351;77;21096;-72
2022/07/23 06:37:22;;;;;;;3.85;1.90;;;;;;;21.66;61.11;100259.93;1847526;77;21021;-73
2022/07/23 06:39:50;;;;;;;5.83;1.80;;;;;;;21.73;61.08;100268.56;1843482;77;20931;-72
2022/07/23 06:42:16;;;;;;;3.35;1.90;;;;;;;21.80;61.17;100265.38;1847402;77;21906;-72
2022/07/23 06:44:44;;;;;;;3.40;1.80;;;;;;;21.87;60.81;100262.22;1847444;77;21026;-72
2022/07/23 06:47:12;;;;;;;2.12;1.80;;;;;;;21.95;60.69;100270.14;1838523;77;20990;-72
2022/07/23 06:49:40;;;;;;;3.17;2.08;;;;;;;22.04;60.30;100268.13;1814232;79;20935;-73
2022/07/23 06:52:08;;;;;;;3.15;2.12;;;;;;;22.12;60.09;100267.99;1830068;77;21758;-73
2022/07/23 06:54:34;;;;;;;3.87;1.90;;;;;;;22.19;60.33;100269.66;1847451;77;21793;-73
2022/07/23 06:57:01;;;;;;;2.67;1.65;;;;;;;22.28;60.41;100269.80;1847740;77;20909;-73
2022/07/23 06:59:29;;;;;;;4.22;2.00;;;;;;;22.38;60.55;100268.09;1824300;77;21060;-73
2022/07/23 07:01:56;;;;;;;4.25;1.95;;;;;;;22.47;59.64;100270.91;1847948;77;20962;-73
2022/07/23 07:04:23;;;;;;;3.17;2.20;;;;;;;22.52;59.42;100270.33;1835831;77;21034;-73
2022/07/23 07:06:50;;;;;;;3.25;2.05;;;;;;;22.60;59.52;100278.75;1814779;79;21893;-73
2022/07/23 07:09:18;;;;;;;2.75;1.90;;;;;;;22.64;59.06;100283.50;1815171;77;20941;-72
2022/07/23 07:11:45;;;;;;;3.98;2.20;;;;;;;22.64;58.91;100281.33;1814231;79;21419;-73
2022/07/23 07:14:13;;;;;;;4.80;1.90;;;;;;;22.66;59.10;100283.30;1814776;77;20981;-73
2022/07/23 07:16:40;;;;;;;3.10;2.02;;;;;;;22.73;58.94;100282.30;1846384;77;20938;-73
2022/07/23 07:19:09;;;;;;;3.70;1.90;;;;;;;22.78;58.07;100282.53;1847662;77;20941;-73
2022/07/23 07:21:35;;;;;;;7.97;1.98;;;;;;;22.80;58.00;100285.84;1833449;77;20981;-72
2022/07/23 07:24:02;;;;;;;6.17;2.00;;;;;;;22.84;58.27;100279.55;1814172;79;20931;-72
2022/07/23 07:26:47;;;;;;;2.35;1.67;;;;;;;22.92;58.10;100280.70;1815594;79;20934;-73
2022/07/23 07:29:15;;;;;;;6.17;2.35;;;;;;;23.04;58.32;100283.63;1816660;79;20997;-73
2022/07/23 07:31:41;;;;;;;2.87;1.80;;;;;;;23.07;56.87;100277.33;1817072;79;21856;-73
2022/07/23 07:34:08;;;;;;;38.98;6.87;;;;;;;23.06;57.21;100287.77;1816477;79;21567;-73
2022/07/23 07:36:37;;;;;;;5.78;2.30;;;;;;;23.05;57.53;100287.97;1816550;79;21709;-73
2022/07/23 07:39:04;;;;;;;7.40;2.08;;;;;;;23.12;57.81;100284.26;1828494;77;21022;-73
2022/07/23 07:41:31;;;;;;;4.70;2.00;;;;;;;23.23;57.64;100288.72;1850051;77;20939;-73
2022/07/23 07:43:58;;;;;;;3.95;1.90;;;;;;;23.32;57.51;100285.61;1849820;77;22284;-73
2022/07/23 07:46:27;;;;;;;13.58;2.80;;;;;;;23.43;56.89;100293.59;1809472;77;20975;-73
2022/07/23 07:49:00;;;;;;;8.48;2.62;;;;;;;23.47;56.48;100292.68;1807496;79;21009;-73
2022/07/23 07:51:26;;;;;;;;;;;;;;;23.53;55.88;100294.53;1810411;79;20984;-72
2022/07/23 07:53:53;;;;;;;5.28;2.40;;;;;;;23.54;56.18;100292.14;1807619;79;20241;-73
2022/07/23 07:56:19;;;;;;;4.00;2.00;;;;;;;23.58;56.49;100296.09;1816000;77;22274;-72
2022/07/23 07:58:47;;;;;;;4.87;1.80;;;;;;;23.69;56.82;100292.80;1816547;79;20978;-72
2022/07/23 08:01:14;;;;;;;3.20;1.72;;;;;;;23.82;56.32;100298.16;1817054;79;20990;-72
2022/07/23 08:03:40;;;;;;;4.87;1.60;;;;;;;23.94;55.70;100291.10;1816524;79;21140;-73
2022/07/23 08:06:07;;;;;;;20.23;2.60;;;;;;;24.08;55.87;100298.63;1816509;79;21037;-72
2022/07/23 08:08:33;;;;;;;3.37;2.00;;;;;;;24.22;54.81;100295.36;1816852;79;21898;-73
2022/07/23 08:11:00;;;;;;;6.08;2.08;;;;;;;24.21;54.30;100297.75;1844843;77;20923;-73
2022/07/23 08:13:28;;;;;;;8.48;1.85;;;;;;;24.17;54.71;100299.23;1848941;77;20958;-72
2022/07/23 08:15:55;;;;;;;2.00;1.60;;;;;;;24.22;54.54;100304.80;1827490;77;21048;-73
2022/07/23 08:18:21;;;;;;;4.50;1.55;;;;;;;24.28;53.63;100299.39;1815288;77;20922;-73
2022/07/23 08:20:48;;;;;;;8.23;2.30;;;;;;;24.30;53.43;100292.42;1814933;79;22349;-73
2022/07/23 08:23:18;;;;;;;2.67;1.90;;;;;;;24.34;53.44;100291.53;1814771;79;20994;-73
2022/07/23 08:25:43;;;;;;;3.45;1.70;;;;;;;24.38;52.95;100303.55;1814450;79;21590;-74
2022/07/23 08:28:11;;;;;;;2.45;1.80;;;;;;;24.39;53.36;100295.23;1812567;79;21042;-73
2022/07/23 08:30:39;;;;;;;4.08;2.02;;;;;;;24.44;53.30;100292.73;1815338;77;20947;-73
2022/07/23 08:33:13;;;;;;;2.98;1.60;;;;;;;24.54;53.56;100290.39;1814781;79;21854;-73
2022/07/23 08:35:42;;;;;;;3.35;2.00;;;;;;;24.62;52.85;100291.20;1814205;79;20934;-73
2022/07/23 08:38:10;;;;;;;6.70;1.67;;;;;;;24.68;53.08;100282.22;1814588;79;21456;-73
2022/07/23 08:40:39;;;;;;;3.58;1.70;;;;;;;24.76;53.20;100286.02;1846380;77;21493;-73
2022/07/23 08:43:12;;;;;;;4.53;1.72;;;;;;;24.87;53.20;100283.97;1847543;77;21025;-73
2022/07/23 08:45:44;;;;;;;3.50;1.70;;;;;;;24.99;52.39;100288.98;1830624;77;22560;-73
2022/07/23 08:48:23;;;;;;;3.83;1.67;;;;;;;25.03;52.06;100290.25;1847650;77;20987;-72
2022/07/23 08:50:52;;;;;;;3.87;1.80;;;;;;;25.06;52.48;100283.57;1847494;77;20981;-73
2022/07/23 08:53:19;;;;;;;25.43;4.65;;;;;;;25.20;52.39;100287.85;1847471;77;21403;-73
2022/07/23 08:55:47;;;;;;;12.33;3.50;;;;;;;25.32;51.10;100280.67;1824121;77;21472;-72
2022/07/23 08:58:14;;;;;;;5.92;1.90;;;;;;;25.45;51.48;100276.20;1847462;77;21712;-73
2022/07/23 09:00:41;;;;;;;6.87;1.90;;;;;;;25.58;51.34;100285.04;1847402;77;21421;-72
2022/07/23 09:03:14;;;;;;;2.72;1.67;;;;;;;25.72;50.95;100274.11;1846320;77;21040;-73
2022/07/23 09:05:41;;;;;;;3.60;1.90;;;;;;;25.80;50.48;100277.89;1825022;77;20943;-73
2022/07/23 09:08:15;;;;;;;1.67;1.47;;;;;;;25.83;50.03;100282.84;1847529;77;21093;-73
2022/07/23 09:11:00;;;;;;;5.95;2.60;;;;;;;25.92;50.38;100288.27;1847507;77;21911;-73
2022/07/23 09:13:48;;;;;;;2.22;1.70;;;;;;;26.00;49.38;100281.73;1847685;77;20974;-73
2022/07/23 09:16:30;;;;;;;28.87;3.98;;;;;;;25.96;48.97;100276.78;1845583;77;20989;-73
2022/07/23 09:19:03;;;;;;;3.22;1.70;;;;;;;25.93;49.75;100283.15;1847731;77;20950;-73
2022/07/23 09:21:35;;;;;;;2.37;1.47;;;;;;;26.08;50.29;100278.73;1820138;77;20973;-73
2022/07/23 09:24:15;;;;;;;3.30;1.40;;;;;;;26.29;48.60;100288.27;1814231;79;21882;-73
2022/07/23 09:26:47;;;;;;;2.62;1.55;;;;;;;26.34;48.36;100282.45;1813156;79;21064;-73
2022/07/23 09:29:29;;;;;;;3.02;1.40;;;;;;;26.35;48.07;100281.96;1830718;77;20962;-73
2022/07/23 09:32:02;;;;;;;2.17;1.50;;;;;;;26.37;49.10;100282.55;1846400;76;20938;-73
2022/07/23 09:34:32;;;;;;;4.15;1.30;;;;;;;26.51;48.79;100283.53;1847545;77;20958;-72
2022/07/23 09:37:16;;;;;;;1.92;1.40;;;;;;;26.62;47.95;100281.09;1846655;77;21919;-73
2022/07/23 09:39:45;;;;;;;3.22;1.32;;;;;;;26.64;47.77;100275.77;1847631;77;20998;-73
2022/07/23 09:42:24;;;;;;;1.85;1.35;;;;;;;26.66;48.34;100274.19;1847533;77;21009;-73
2022/07/23 09:44:54;;;;;;;2.12;1.30;;;;;;;26.81;48.36;100267.80;1825797;77;20950;-73
2022/07/23 09:47:23;;;;;;;5.53;1.30;;;;;;;27.04;46.63;100275.22;1814274;79;20961;-73
2022/07/23 09:50:08;;;;;;;3.60;1.30;;;;;;;27.22;45.70;100278.39;1814420;79;22824;-73
2022/07/23 09:52:38;;;;;;;2.52;1.32;;;;;;;27.32;45.89;100274.57;1822495;77;21382;-73
2022/07/23 09:55:06;;;;;;;2.22;1.10;;;;;;;27.52;45.93;100266.91;1823365;77;20982;-72
2022/07/23 09:57:33;;;;;;;6.17;1.12;;;;;;;27.75;45.79;100268.00;1814216;79;21103;-72
2022/07/23 10:00:07;;;;;;;1.35;1.12;;;;;;;27.93;44.67;100270.05;1814429;79;20938;-72
2022/07/23 10:02:34;;;;;;;2.83;1.30;;;;;;;27.99;43.45;100271.50;1814238;79;22366;-72
2022/07/23 10:05:19;;;;;;;4.97;1.55;;;;;;;28.02;44.45;100265.61;1814246;79;21338;-72
2022/07/23 10:07:50;;;;;;;2.52;1.20;;;;;;;28.05;43.78;100259.69;1778232;79;21356;-73
2022/07/23 10:10:39;;;;;;;3.42;1.40;;;;;;;28.15;43.87;100267.52;1743433;81;21037;-73
2022/07/23 10:15:47;;;;;;;2.77;1.40;;;;;;;28.32;44.19;100264.09;1796470;77;21844;-73
2022/07/23 10:18:13;;;;;;;3.55;1.40;;;;;;;28.32;43.79;100264.09;1847366;77;21005;-72
2022/07/23 10:20:41;;;;;;;3.27;1.60;;;;;;;28.26;43.71;100260.41;1804775;77;20933;-73
2022/07/23 10:23:37;;;;;;;4.12;1.70;;;;;;;28.28;44.09;100256.97;1788998;80;20941;-72
2022/07/23 10:26:21;;;;;;;4.65;1.30;;;;;;;28.34;43.62;100261.42;1789079;78;21064;-73
2022/07/23 10:29:17;;;;;;;11.78;1.82;;;;;;;28.38;43.75;100256.34;1792982;78;22498;-72
2022/07/23 10:32:04;;;;;;;2.52;1.32;;;;;;;28.53;43.34;100251.73;1794084;78;21015;-72
2022/07/23 10:34:55;;;;;;;6.00;1.40;;;;;;;28.79;44.24;100259.30;1757771;81;21320;-72
2022/07/23 10:37:38;;;;;;;2.77;1.30;;;;;;;29.00;42.36;100254.53;1698036;82;20995;-73
2022/07/23 10:40:18;;;;;;;4.33;1.40;;;;;;;29.07;42.66;100255.73;1814344;77;21439;-73
2022/07/23 10:42:46;;;;;;;2.42;1.40;;;;;;;29.08;41.73;100256.02;1812078;78;21924;-72
2022/07/23 10:45:36;;;;;;;4.12;1.40;;;;;;;29.08;41.83;100257.38;1823220;77;20911;-72
2022/07/23 10:48:29;;;;;;;2.10;1.20;;;;;;;29.18;41.38;100251.28;1837914;77;21071;-73
2022/07/23 10:51:13;;;;;;;2.35;1.40;;;;;;;29.18;41.38;100251.28;1835143;77;20931;-72
2022/07/23 10:53:58;;;;;;;2.30;1.32;;;;;;;29.54;41.23;100258.16;1842815;77;21325;-72
2022/07/23 10:56:57;;;;;;;2.00;1.30;;;;;;;29.54;41.23;100258.16;1842987;77;22553;-73
2022/07/23 10:59:24;;;;;;;4.62;1.57;;;;;;;29.66;40.95;100253.96;1846666;77;20982;-73
2022/07/23 11:01:52;;;;;;;2.22;1.37;;;;;;;29.46;40.11;100254.45;1842805;77;20987;-73
2022/07/23 11:04:19;;;;;;;3.50;1.45;;;;;;;29.20;40.41;100264.09;1814146;79;20956;-72
2022/07/23 11:06:55;;;;;;;5.00;1.30;;;;;;;29.06;40.90;100257.63;1838196;77;20990;-73
2022/07/23 11:09:41;;;;;;;2.65;1.30;;;;;;;29.19;42.10;100251.03;1847378;77;21493;-73
2022/07/23 11:12:25;;;;;;;3.83;1.50;;;;;;;29.55;41.92;100240.20;1847326;77;21044;-73
2022/07/23 11:15:07;;;;;;;2.17;1.40;;;;;;;29.90;41.35;100241.22;1847481;77;21073;-72
2022/07/23 11:17:47;;;;;;;5.40;1.32;;;;;;;30.19;40.99;100241.89;1847301;77;21006;-73
2022/07/23 11:20:22;;;;;;;1.40;1.30;;;;;;;30.35;40.14;100241.54;1810195;77;21033;-72
2022/07/23 11:22:52;;;;;;;4.00;1.40;;;;;;;30.44;40.60;100237.83;1813442;79;21996;-72
2022/07/23 11:25:30;;;;;;;2.90;1.22;;;;;;;30.61;38.91;100244.55;1814062;79;20939;-72
2022/07/23 11:28:15;;;;;;;4.03;1.50;;;;;;;30.57;39.14;100236.59;1815318;78;20990;-72
2022/07/23 11:30:45;;;;;;;2.98;1.20;;;;;;;30.71;39.35;100246.05;1816460;79;20986;-73
2022/07/23 11:33:16;;;;;;;4.10;1.35;;;;;;;30.76;38.76;100239.27;1815956;78;20982;-73
2022/07/23 11:35:49;;;;;;;3.60;1.50;;;;;;;30.85;38.48;100236.35;1815214;77;21870;-73
2022/07/23 11:38:21;;;;;;;2.52;1.40;;;;;;;30.98;38.32;100241.40;1816471;79;21492;-73